Time;durP1;ratioP1;P1;durP2;ratioP2;P2;SDS_P1;SDS_P2;PMS_P1;PMS_P2;Temp;Humidity;BMP_temperature;BMP_pressure;BME280_temperature;BME280_humidity;BME280_pressure;Samples;Min_cycle;Max_cycle;Signal;HPM_P1;HPM_P2
2023/05/03 00:01:38;;;;;;;6.70;2.70;;;;;;;11.51;48.27;101233.69;106092;1279;73808;-92
2023/05/03 00:04:05;;;;;;;5.70;2.60;;;;;;;11.49;48.32;101235.23;106091;1280;71947;-92
2023/05/03 00:06:32;;;;;;;4.80;2.60;;;;;;;11.48;48.45;101239.08;106045;1279;62938;-93
2023/05/03 00:09:01;;;;;;;5.00;2.30;;;;;;;11.49;48.45;101238.48;106087;1280;61357;-92
2023/05/03 00:11:28;;;;;;;5.90;2.90;;;;;;;11.49;48.76;101241.59;106090;1279;75002;-92
2023/05/03 00:13:55;;;;;;;5.80;2.60;;;;;;;11.51;48.63;101239.02;106087;1279;72159;-92
2023/05/03 00:16:23;;;;;;;7.10;2.80;;;;;;;11.53;48.65;101238.86;106119;1278;72683;-92
2023/05/03 00:18:50;;;;;;;4.20;2.40;;;;;;;11.54;48.67;101235.70;106038;1279;59437;-93
2023/05/03 00:21:17;;;;;;;7.30;3.40;;;;;;;11.55;48.68;101234.21;105987;1279;61230;-92
2023/05/03 00:23:44;;;;;;;4.80;2.60;;;;;;;11.55;48.68;101231.66;106072;1279;75855;-93
2023/05/03 00:26:11;;;;;;;6.30;2.90;;;;;;;11.55;48.67;101233.09;106078;1280;72967;-92
2023/05/03 00:28:38;;;;;;;5.70;2.90;;;;;;;11.54;48.67;101233.08;106039;1279;71785;-93
2023/05/03 00:31:08;;;;;;;6.30;3.40;;;;;;;11.53;48.75;101232.75;106114;1280;61313;-92
2023/05/03 00:33:36;;;;;;;6.50;2.90;;;;;;;11.50;48.71;101232.28;105983;1279;61273;-93
2023/05/03 00:36:12;;;;;;;6.60;2.80;;;;;;;11.48;48.81;101233.87;106015;1279;74817;-93
2023/05/03 00:38:39;;;;;;;6.80;3.20;;;;;;;11.47;48.88;101231.98;106008;1283;74001;-93
2023/05/03 00:41:08;;;;;;;4.40;2.70;;;;;;;11.46;48.93;101229.23;105976;1280;72470;-92
2023/05/03 00:43:37;;;;;;;5.20;2.90;;;;;;;11.47;49.13;101228.44;105978;1279;62344;-93
2023/05/03 00:46:05;;;;;;;5.00;2.80;;;;;;;11.47;49.21;101231.98;106147;1279;61252;-94
2023/05/03 00:48:47;;;;;;;6.30;2.90;;;;;;;11.49;49.34;101229.23;106126;1280;74500;-94
2023/05/03 00:51:14;;;;;;;5.50;2.80;;;;;;;11.50;49.33;101228.59;106307;1279;71311;-92
2023/05/03 00:53:42;;;;;;;7.00;2.50;;;;;;;11.53;49.36;101226.65;106026;1281;72644;-94
2023/05/03 00:56:10;;;;;;;5.80;2.40;;;;;;;11.55;49.40;101225.89;106069;1279;61633;-95
2023/05/03 00:58:39;;;;;;;5.30;2.70;;;;;;;11.57;49.49;101224.51;106162;1280;61147;-94
2023/05/03 01:01:06;;;;;;;4.30;2.20;;;;;;;11.60;49.29;101227.02;106154;1279;73573;-93
2023/05/03 01:03:39;;;;;;;4.40;2.10;;;;;;;11.64;49.25;101224.18;105966;1279;74102;-93
2023/05/03 01:06:22;;;;;;;5.40;2.20;;;;;;;11.69;49.09;101223.92;105878;1280;70329;-95
2023/05/03 01:09:02;;;;;;;6.00;2.20;;;;;;;11.71;49.05;101216.04;106120;1280;61235;-95
2023/05/03 01:11:54;;;;;;;6.50;2.30;;;;;;;11.75;48.91;101217.15;106092;1280;61124;-92
2023/05/03 01:14:35;;;;;;;4.30;2.10;;;;;;;11.80;48.66;101215.66;106096;1279;74675;-95
2023/05/03 01:17:11;;;;;;;5.20;2.10;;;;;;;11.84;48.64;101212.61;106057;1280;72885;-93
2023/05/03 01:19:43;;;;;;;7.10;2.30;;;;;;;11.91;48.54;101214.64;106045;1280;71980;-93
2023/05/03 01:22:23;;;;;;;5.10;2.20;;;;;;;12.00;48.30;101208.17;106150;1279;61432;-92
2023/05/03 01:24:57;;;;;;;8.20;2.20;;;;;;;12.10;48.29;101203.77;105996;1279;61282;-91
2023/05/03 01:27:24;;;;;;;6.10;2.50;;;;;;;12.18;48.34;101202.98;106040;1280;75066;-91
2023/05/03 01:29:52;;;;;;;4.50;2.20;;;;;;;12.24;48.20;101197.88;106261;1282;75879;-93
2023/05/03 01:32:22;;;;;;;4.50;2.20;;;;;;;12.30;48.17;101198.80;106280;1280;71867;-91
2023/05/03 01:35:07;;;;;;;5.70;2.10;;;;;;;12.35;47.93;101196.27;106291;1282;61243;-91
2023/05/03 01:37:35;;;;;;;9.80;2.10;;;;;;;12.41;47.69;101197.67;106263;1279;61283;-91
2023/05/03 01:40:06;;;;;;;6.80;2.70;;;;;;;12.45;47.65;101191.50;106148;1280;75791;-91
2023/05/03 01:42:36;;;;;;;;;;;;;;;12.47;47.74;101191.02;106363;1279;73811;-92
2023/05/03 01:45:04;;;;;;;4.40;2.10;;;;;;;12.48;47.69;101188.64;106207;1279;71801;-93
2023/05/03 01:47:31;;;;;;;4.10;1.90;;;;;;;12.49;47.57;101189.27;106218;1279;61150;-91
2023/05/03 01:50:00;;;;;;;5.60;2.10;;;;;;;12.51;47.46;101189.02;106289;1279;59838;-90
2023/05/03 01:52:29;;;;;;;4.40;1.80;;;;;;;12.52;47.33;101193.50;106219;1279;75901;-92
2023/05/03 01:54:56;;;;;;;4.50;2.00;;;;;;;12.52;47.36;101188.72;106263;1280;73963;-91
2023/05/03 01:57:23;;;;;;;5.20;2.20;;;;;;;12.51;47.10;101189.04;106300;1279;70633;-93
2023/05/03 01:59:50;;;;;;;3.80;1.70;;;;;;;12.51;46.94;101185.83;106212;1280;61182;-93
2023/05/03 02:02:17;;;;;;;6.30;2.30;;;;;;;12.51;46.88;101188.11;106254;1279;61132;-92
2023/05/03 02:04:44;;;;;;;2.90;1.90;;;;;;;12.49;46.77;101185.80;106154;1279;74123;-91
2023/05/03 02:07:12;;;;;;;5.20;2.10;;;;;;;12.47;46.92;101183.64;106338;1279;71760;-94
2023/05/03 02:09:38;;;;;;;5.20;2.00;;;;;;;12.43;47.07;101180.34;106255;1278;73692;-94
2023/05/03 02:12:05;;;;;;;6.40;2.20;;;;;;;12.39;47.10;101176.33;106248;1280;61377;-92
2023/05/03 02:14:32;;;;;;;5.10;1.90;;;;;;;12.35;47.23;101175.55;106121;1279;59332;-93
2023/05/03 02:17:01;;;;;;;3.50;1.90;;;;;;;12.34;47.36;101178.84;106117;1279;73736;-93
2023/05/03 02:19:28;;;;;;;4.80;2.10;;;;;;;12.34;47.52;101179.77;106238;1280;73312;-91
2023/05/03 02:21:55;;;;;;;5.50;2.10;;;;;;;12.36;47.68;101180.05;106309;1279;72712;-91
2023/05/03 02:24:23;;;;;;;5.40;2.20;;;;;;;12.40;47.72;101178.92;106153;1280;61157;-92
2023/05/03 02:26:50;;;;;;;5.90;2.30;;;;;;;12.46;47.76;101178.71;106306;1280;61157;-93
2023/05/03 02:29:17;;;;;;;5.60;1.90;;;;;;;12.51;47.76;101179.38;106250;1279;74469;-92
2023/05/03 02:31:45;;;;;;;6.60;2.40;;;;;;;12.57;47.76;101176.50;106289;1280;73835;-94
2023/05/03 02:34:11;;;;;;;5.00;2.20;;;;;;;12.63;47.52;101178.42;106234;1279;72875;-92
2023/05/03 02:36:38;;;;;;;5.40;2.40;;;;;;;12.73;47.32;101172.93;106215;1280;61163;-92
2023/05/03 02:39:05;;;;;;;6.20;2.40;;;;;;;12.81;47.14;101171.87;106234;1278;61111;-92
2023/05/03 02:41:32;;;;;;;9.20;2.50;;;;;;;12.88;47.19;101171.71;106313;1279;74992;-91
2023/05/03 02:44:01;;;;;;;7.20;2.40;;;;;;;12.93;46.92;101171.15;106217;1280;73950;-91
2023/05/03 02:46:28;;;;;;;5.70;2.20;;;;;;;12.99;46.74;101176.77;106196;1282;72583;-92
2023/05/03 02:48:55;;;;;;;7.20;2.60;;;;;;;13.05;46.53;101181.69;106207;1278;61771;-90
2023/05/03 02:51:23;;;;;;;6.90;2.60;;;;;;;13.10;46.26;101175.77;106192;1279;61185;-94
2023/05/03 02:53:50;;;;;;;7.60;3.00;;;;;;;13.17;45.96;101179.48;106305;1279;73930;-93
2023/05/03 02:56:17;;;;;;;9.60;2.70;;;;;;;13.23;45.91;101177.58;106202;1280;73691;-91
2023/05/03 02:58:45;;;;;;;9.10;2.90;;;;;;;13.29;45.66;101181.34;106206;1279;70298;-92
2023/05/03 03:01:11;;;;;;;7.80;2.80;;;;;;;13.35;45.36;101186.90;106301;1280;61177;-94
2023/05/03 03:03:41;;;;;;;8.50;2.20;;;;;;;13.43;45.23;101194.39;106210;1279;61266;-93
2023/05/03 03:06:08;;;;;;;9.10;2.70;;;;;;;13.49;45.22;101201.15;106255;1282;74420;-92
2023/05/03 03:08:35;;;;;;;8.80;2.30;;;;;;;13.57;45.07;101203.33;106139;1279;74265;-91
2023/05/03 03:11:03;;;;;;;9.30;2.70;;;;;;;13.61;44.83;101195.83;106335;1279;73956;-92
2023/05/03 03:13:38;;;;;;;5.60;2.30;;;;;;;13.63;44.85;101192.90;106202;1278;61275;-91
2023/05/03 03:16:08;;;;;;;6.80;2.50;;;;;;;13.65;44.91;101194.40;106231;1279;61134;-92
2023/05/03 03:18:35;;;;;;;6.30;2.10;;;;;;;13.66;44.88;101194.30;106242;1279;74875;-92
2023/05/03 03:21:03;;;;;;;5.90;2.30;;;;;;;13.66;44.91;101194.90;106188;1279;72642;-94
2023/05/03 03:23:30;;;;;;;4.80;2.10;;;;;;;13.70;44.79;101197.00;106495;1279;73725;-96
2023/05/03 03:25:57;;;;;;;7.50;2.70;;;;;;;13.71;44.58;101193.52;106381;1279;61237;-91
2023/05/03 03:28:26;;;;;;;9.20;2.10;;;;;;;13.75;44.65;101196.80;106433;1278;61244;-94
2023/05/03 03:31:02;;;;;;;6.40;2.30;;;;;;;13.79;44.81;101199.30;106160;1279;74636;-93
2023/05/03 03:33:30;;;;;;;6.20;1.90;;;;;;;13.83;44.81;101199.10;106244;1280;72674;-94
2023/05/03 03:36:00;;;;;;;5.90;2.40;;;;;;;13.86;44.59;101196.16;106342;1279;74428;-94
2023/05/03 03:38:31;;;;;;;6.10;2.00;;;;;;;13.89;44.54;101196.27;106036;1279;61482;-94
2023/05/03 03:41:19;;;;;;;5.80;1.60;;;;;;;13.97;44.49;101195.71;106247;1280;61540;-94
2023/05/03 03:43:54;;;;;;;4.40;2.00;;;;;;;14.03;44.51;101196.06;106076;1279;75702;-92
2023/05/03 03:46:22;;;;;;;6.90;2.30;;;;;;;14.09;44.34;101198.37;106044;1280;73554;-94
2023/05/03 03:48:50;;;;;;;8.00;1.90;;;;;;;14.13;44.26;101198.17;106112;1280;71308;-95
2023/05/03 03:51:22;;;;;;;5.50;2.20;;;;;;;14.18;44.31;101201.36;106170;1280;61336;-94
2023/05/03 03:53:50;;;;;;;6.10;2.30;;;;;;;14.25;44.23;101200.14;106070;1279;61181;-93
2023/05/03 03:56:24;;;;;;;7.00;2.00;;;;;;;14.44;44.07;101192.33;106326;1280;74472;-94
2023/05/03 03:58:55;;;;;;;9.10;2.30;;;;;;;14.51;43.81;101193.70;106370;1279;71101;-93
2023/05/03 04:01:23;;;;;;;5.10;2.00;;;;;;;14.47;43.91;101190.11;106301;1280;72552;-94
2023/05/03 04:03:56;;;;;;;7.90;2.50;;;;;;;14.50;43.93;101188.36;106387;1280;59371;-94
2023/05/03 04:06:42;;;;;;;5.10;1.90;;;;;;;14.54;43.90;101192.52;106454;1279;61090;-95
2023/05/03 04:09:15;;;;;;;6.00;1.90;;;;;;;14.59;43.91;101189.52;106643;1280;74714;-94
2023/05/03 04:11:45;;;;;;;5.10;2.00;;;;;;;14.64;43.53;101183.98;106246;1279;73270;-93
2023/05/03 04:14:12;;;;;;;9.40;2.20;;;;;;;14.77;43.50;101183.08;106326;1279;73982;-91
2023/05/03 04:16:40;;;;;;;8.30;2.30;;;;;;;14.74;43.61;101179.02;106446;1280;61326;-92
2023/05/03 04:19:07;;;;;;;9.10;2.40;;;;;;;14.76;43.51;101180.42;106379;1279;61121;-91
2023/05/03 04:21:37;;;;;;;8.20;2.10;;;;;;;14.81;43.50;101182.09;106283;1280;73761;-91
2023/05/03 04:24:05;;;;;;;8.40;2.30;;;;;;;14.87;43.42;101182.52;106188;1279;71982;-92
2023/05/03 04:26:32;;;;;;;6.00;2.10;;;;;;;15.04;43.10;101182.39;106242;1279;72312;-90
2023/05/03 04:29:05;;;;;;;5.10;2.10;;;;;;;15.13;42.95;101182.44;106300;1279;61305;-94
2023/05/03 04:31:33;;;;;;;5.50;2.20;;;;;;;15.21;42.61;101181.02;106313;1279;61170;-91
2023/05/03 04:34:01;;;;;;;5.10;2.90;;;;;;;15.30;42.48;101188.00;106303;1280;72789;-93
2023/05/03 04:36:28;;;;;;;4.50;2.20;;;;;;;15.40;42.52;101187.92;106328;1279;73391;-92
2023/05/03 04:38:56;;;;;;;5.40;2.20;;;;;;;15.49;42.28;101191.49;106038;1280;74258;-92
2023/05/03 04:41:23;;;;;;;8.10;2.80;;;;;;;15.59;42.02;101191.19;106366;1280;59108;-95
2023/05/03 04:43:54;;;;;;;7.70;2.60;;;;;;;15.67;41.61;101195.55;106644;1279;60050;-94
2023/05/03 04:46:21;;;;;;;4.80;2.40;;;;;;;15.76;41.28;101199.89;106469;1280;74054;-93
2023/05/03 04:48:49;;;;;;;4.60;2.60;;;;;;;15.84;41.30;101201.91;106388;1279;74163;-93
2023/05/03 04:51:27;;;;;;;4.20;2.40;;;;;;;15.93;41.16;101202.09;106572;1279;73581;-95
2023/05/03 04:53:55;;;;;;;4.70;2.70;;;;;;;15.95;41.03;101202.98;106663;1279;61511;-93
2023/05/03 04:56:25;;;;;;;5.10;2.30;;;;;;;15.94;41.10;101201.38;106435;1279;61220;-93
2023/05/03 04:59:00;;;;;;;5.60;2.40;;;;;;;16.01;40.86;101205.98;106892;1279;73971;-94
2023/05/03 05:01:47;;;;;;;3.80;2.50;;;;;;;16.09;40.52;101207.71;106600;1279;72483;-93
2023/05/03 05:04:15;;;;;;;3.70;2.30;;;;;;;16.18;40.25;101212.08;106625;1279;71530;-94
2023/05/03 05:06:49;;;;;;;3.10;2.00;;;;;;;16.25;40.17;101217.04;106619;1279;61126;-95
2023/05/03 05:09:23;;;;;;;3.30;1.80;;;;;;;16.34;39.96;101217.42;106388;1279;61228;-94
2023/05/03 05:11:53;;;;;;;3.20;1.90;;;;;;;16.41;39.76;101219.38;106853;1279;74272;-94
2023/05/03 05:14:29;;;;;;;4.00;1.90;;;;;;;16.49;39.59;101221.42;106727;1279;72000;-93
2023/05/03 05:16:58;;;;;;;3.30;1.60;;;;;;;16.57;39.57;101224.55;106483;1279;71743;-92
2023/05/03 05:19:26;;;;;;;6.10;1.80;;;;;;;16.67;39.22;101221.30;106338;1280;61173;-91
2023/05/03 05:21:53;;;;;;;4.80;1.90;;;;;;;16.76;39.05;101217.84;106401;1280;61184;-93
2023/05/03 05:24:21;;;;;;;5.70;1.80;;;;;;;16.86;38.99;101221.45;106223;1280;74581;-94
2023/05/03 05:26:52;;;;;;;5.10;1.80;;;;;;;16.97;38.95;101221.20;105957;1279;72723;-94
2023/05/03 05:29:36;;;;;;;3.50;1.90;;;;;;;17.10;38.26;101222.59;106501;1279;71884;-93
2023/05/03 05:32:06;;;;;;;12.70;2.30;;;;;;;17.18;37.86;101222.73;106410;1280;61267;-92
2023/05/03 05:34:36;;;;;;;3.40;1.30;;;;;;;17.32;37.78;101219.79;106572;1279;61151;-94
2023/05/03 05:37:13;;;;;;;3.40;1.60;;;;;;;17.43;37.16;101215.95;106875;1278;73343;-93
2023/05/03 05:39:40;;;;;;;3.30;1.70;;;;;;;17.55;36.78;101214.46;106596;1278;73634;-95
2023/05/03 05:42:07;;;;;;;4.60;1.50;;;;;;;17.67;36.32;101212.77;106813;1280;71723;-92
2023/05/03 05:44:35;;;;;;;3.30;1.60;;;;;;;17.81;36.62;101212.34;106760;1280;61153;-91
2023/05/03 05:47:02;;;;;;;3.10;1.40;;;;;;;17.96;36.20;101210.10;106723;1280;61345;-93
2023/05/03 05:49:29;;;;;;;4.80;1.90;;;;;;;18.09;35.97;101206.73;106381;1280;74927;-92
2023/05/03 05:51:58;;;;;;;5.50;1.80;;;;;;;18.23;35.86;101205.02;106355;1279;71686;-95
2023/05/03 05:54:26;;;;;;;3.00;1.80;;;;;;;18.36;35.30;101204.84;106572;1281;71728;-94
2023/05/03 05:56:55;;;;;;;3.70;1.70;;;;;;;18.46;34.97;101206.86;106876;1279;61179;-95
2023/05/03 05:59:24;;;;;;;3.90;1.60;;;;;;;18.59;35.22;101207.08;106880;1279;60445;-94
2023/05/03 06:01:52;;;;;;;3.80;1.60;;;;;;;18.73;35.28;101207.85;106586;1279;75984;-95
2023/05/03 06:04:21;;;;;;;3.20;1.50;;;;;;;18.86;34.73;101207.48;106916;1279;74037;-94
2023/05/03 06:06:49;;;;;;;5.50;2.00;;;;;;;18.98;34.17;101205.13;106896;1282;72286;-92
2023/05/03 06:09:18;;;;;;;4.50;1.60;;;;;;;19.09;34.17;101202.59;107056;1278;59899;-94
2023/05/03 06:12:04;;;;;;;3.50;2.00;;;;;;;19.23;33.54;101200.39;107072;1279;60463;-94
2023/05/03 06:14:39;;;;;;;4.80;1.80;;;;;;;19.35;33.35;101201.69;106680;1279;74711;-91
2023/05/03 06:17:26;;;;;;;2.50;1.50;;;;;;;19.47;32.18;101197.02;106493;1280;73542;-94
2023/05/03 06:20:12;;;;;;;4.20;1.70;;;;;;;19.55;31.85;101191.98;106666;1278;71529;-94
2023/05/03 06:22:59;;;;;;;3.60;1.50;;;;;;;19.67;31.06;101185.41;106639;1278;61395;-89
2023/05/03 06:25:26;;;;;;;4.10;1.50;;;;;;;19.76;30.31;101186.85;107039;1278;59081;-93
2023/05/03 06:28:05;;;;;;;4.80;1.70;;;;;;;19.85;30.25;101184.39;107064;1280;73393;-95
2023/05/03 06:31:00;;;;;;;4.00;1.60;;;;;;;19.99;30.23;101182.52;107134;1279;182346;-94
2023/05/03 06:33:59;;;;;;;3.60;1.50;;;;;;;20.10;29.60;101175.05;107044;1279;71567;-95
2023/05/03 06:36:28;;;;;;;3.90;1.60;;;;;;;20.20;29.57;101175.65;107121;1279;62820;-95
2023/05/03 06:38:56;;;;;;;3.10;1.60;;;;;;;20.30;28.78;101172.21;107071;1278;61240;-93
2023/05/03 06:41:23;;;;;;;5.80;1.80;;;;;;;20.35;28.36;101176.59;107076;1279;73668;-94
2023/05/03 06:43:54;;;;;;;2.90;1.50;;;;;;;20.41;28.68;101171.47;106805;1280;71708;-92
2023/05/03 06:46:22;;;;;;;3.70;1.60;;;;;;;20.52;29.01;101172.94;106726;1279;72853;-94
2023/05/03 06:48:49;;;;;;;4.60;1.70;;;;;;;20.64;28.99;101173.54;106868;1279;60334;-93
2023/05/03 06:51:16;;;;;;;8.70;1.80;;;;;;;20.78;28.40;101167.52;106833;1280;59683;-94
2023/05/03 06:53:45;;;;;;;3.40;1.70;;;;;;;20.92;27.27;101173.27;106581;1280;74716;-94
2023/05/03 06:56:12;;;;;;;3.00;1.30;;;;;;;21.03;26.91;101167.16;106458;1280;73818;-93
2023/05/03 06:58:40;;;;;;;2.60;1.10;;;;;;;21.14;26.45;101161.27;106584;1280;72880;-93
2023/05/03 07:01:07;;;;;;;3.10;1.30;;;;;;;21.23;25.83;101163.52;106805;1280;61131;-93
2023/05/03 07:03:36;;;;;;;4.00;1.30;;;;;;;21.30;25.89;101162.39;106866;1280;60134;-93
2023/05/03 07:06:08;;;;;;;3.60;1.10;;;;;;;21.38;25.62;101160.48;107098;1279;73645;-92
2023/05/03 07:08:36;;;;;;;3.20;1.30;;;;;;;21.47;25.53;101154.75;107021;1279;74015;-96
2023/05/03 07:11:04;;;;;;;5.40;1.30;;;;;;;21.60;25.73;101153.88;107172;1279;73770;-96
2023/05/03 07:13:32;;;;;;;4.00;1.10;;;;;;;21.74;25.28;101144.55;106738;1279;61307;-96
2023/05/03 07:15:59;;;;;;;3.50;1.20;;;;;;;21.91;25.14;101144.13;106700;1279;60440;-95
2023/05/03 07:19:26;;;;;;;2.70;1.10;;;;;;;22.09;24.54;101145.91;107085;1279;75919;-91
2023/05/03 07:22:02;;;;;;;5.10;1.20;;;;;;;22.28;23.41;101149.64;106930;1280;71429;-95
2023/05/03 07:24:36;;;;;;;3.00;1.30;;;;;;;22.41;22.44;101151.15;106669;1280;72452;-96
2023/05/03 07:27:05;;;;;;;3.90;1.30;;;;;;;22.48;22.53;101152.91;106958;1279;61336;-96
2023/05/03 07:29:47;;;;;;;2.40;1.10;;;;;;;22.60;22.95;101152.88;107096;1280;59266;-94
2023/05/03 07:32:14;;;;;;;4.50;1.20;;;;;;;22.77;22.71;101148.99;106981;1280;74798;-95
2023/05/03 07:34:41;;;;;;;2.10;1.10;;;;;;;22.96;22.37;101143.34;107008;1280;72091;-91
2023/05/03 07:37:09;;;;;;;3.20;1.20;;;;;;;23.07;21.13;101136.11;106826;1280;73909;-92
2023/05/03 07:39:38;;;;;;;5.30;1.30;;;;;;;23.11;21.21;101135.45;106878;1280;59222;-95
2023/05/03 07:42:05;;;;;;;2.10;1.20;;;;;;;23.18;20.82;101139.14;106694;1280;60053;-93
2023/05/03 07:44:33;;;;;;;4.20;1.50;;;;;;;23.26;20.83;101137.37;106750;1280;73840;-94
2023/05/03 07:47:01;;;;;;;2.40;1.30;;;;;;;23.34;20.65;101137.13;106807;1280;72113;-93
2023/05/03 07:49:34;;;;;;;;;;;;;;;23.43;20.27;101139.14;106754;1281;73923;-95
2023/05/03 07:52:02;;;;;;;4.30;1.60;;;;;;;23.50;20.03;101136.91;106710;1280;61297;-94
2023/05/03 07:54:37;;;;;;;3.40;1.10;;;;;;;23.56;19.72;101134.46;106715;1280;60445;-93
2023/05/03 07:57:06;;;;;;;2.40;1.10;;;;;;;23.53;19.51;101136.24;106512;1280;74675;-93
2023/05/03 07:59:34;;;;;;;3.00;1.10;;;;;;;23.53;19.82;101131.41;106708;1280;72592;-93
2023/05/03 08:02:02;;;;;;;2.70;1.10;;;;;;;23.55;19.73;101128.37;106799;1280;70218;-94
2023/05/03 08:04:29;;;;;;;3.30;1.20;;;;;;;23.58;19.64;101130.38;106767;1280;61531;-90
2023/05/03 08:07:03;;;;;;;2.50;1.30;;;;;;;23.58;19.68;101126.55;106909;1279;61149;-93
2023/05/03 08:09:30;;;;;;;3.30;1.20;;;;;;;23.58;19.74;101129.67;107078;1279;75162;-93
2023/05/03 08:11:57;;;;;;;4.20;1.20;;;;;;;23.55;19.90;101126.48;107252;1278;71478;-95
2023/05/03 08:14:24;;;;;;;2.30;1.20;;;;;;;23.56;20.03;101124.98;106982;1279;72986;-87
2023/05/03 08:16:58;;;;;;;5.10;1.20;;;;;;;23.61;20.22;101125.33;107407;1280;59408;-88
2023/05/03 08:19:36;;;;;;;2.40;1.20;;;;;;;23.68;19.94;101125.30;107167;1279;59054;-84
2023/05/03 08:22:04;;;;;;;2.90;1.00;;;;;;;23.72;19.67;101121.48;107440;1279;73020;-86
2023/05/03 08:24:31;;;;;;;4.20;1.30;;;;;;;23.73;19.80;101125.34;107475;1279;71870;-79
2023/05/03 08:27:02;;;;;;;7.20;1.30;;;;;;;23.80;20.38;101125.05;107513;1278;71005;-87
2023/05/03 08:29:36;;;;;;;2.00;1.10;;;;;;;23.94;20.27;101122.45;107449;1282;59626;-88
2023/05/03 08:32:03;;;;;;;4.60;1.40;;;;;;;23.99;19.83;101124.91;107571;1279;59175;-91
2023/05/03 08:34:31;;;;;;;4.10;1.60;;;;;;;23.98;19.90;101130.63;107615;1279;74706;-85
2023/05/03 08:36:59;;;;;;;2.80;1.30;;;;;;;23.99;20.22;101126.61;107656;1279;70906;-92
2023/05/03 08:39:27;;;;;;;2.60;1.00;;;;;;;24.07;20.11;101126.29;107498;1278;72374;-92
2023/05/03 08:41:54;;;;;;;2.20;1.20;;;;;;;24.13;20.16;101122.53;107343;1279;59097;-91
2023/05/03 08:44:23;;;;;;;5.10;1.20;;;;;;;24.21;20.12;101117.74;107185;1279;59896;-93
2023/05/03 08:46:51;;;;;;;3.50;1.20;;;;;;;24.27;19.82;101117.49;107530;1280;75935;-93
2023/05/03 08:49:20;;;;;;;3.40;1.30;;;;;;;24.36;20.25;101115.77;107304;1282;72815;-92
2023/05/03 08:51:48;;;;;;;5.10;1.60;;;;;;;24.43;19.13;101106.15;106569;1278;71483;-92
2023/05/03 08:54:20;;;;;;;3.90;1.20;;;;;;;24.44;19.06;101111.79;106657;1280;61256;-90
2023/05/03 08:56:48;;;;;;;2.20;1.20;;;;;;;24.37;19.18;101110.89;106297;1279;61121;-90
2023/05/03 08:59:16;;;;;;;3.00;1.10;;;;;;;24.32;19.16;101109.33;106205;1279;74747;-91
2023/05/03 09:01:43;;;;;;;3.80;1.30;;;;;;;24.33;19.58;101104.68;106266;1279;72211;-91
2023/05/03 09:04:19;;;;;;;4.30;1.70;;;;;;;24.36;19.70;101101.10;106301;1279;72605;-92
2023/05/03 09:06:47;;;;;;;3.00;1.00;;;;;;;24.37;20.14;101105.12;106280;1278;61212;-89
2023/05/03 09:09:15;;;;;;;2.10;0.90;;;;;;;24.40;20.11;101102.98;106296;1280;61280;-90
2023/05/03 09:11:51;;;;;;;6.00;1.30;;;;;;;24.45;20.17;101107.16;106640;1278;75437;-94
2023/05/03 09:14:23;;;;;;;2.80;1.20;;;;;;;24.48;19.86;101104.42;107237;1279;71591;-93
2023/05/03 09:16:50;;;;;;;2.40;1.30;;;;;;;24.50;19.70;101101.00;106573;1279;73384;-89
2023/05/03 09:19:31;;;;;;;4.90;1.30;;;;;;;24.56;19.79;101101.52;106390;1279;60583;-94
2023/05/03 09:22:05;;;;;;;2.60;1.20;;;;;;;24.59;19.89;101095.99;106385;1279;59858;-91
2023/05/03 09:24:32;;;;;;;2.40;1.20;;;;;;;24.63;20.19;101104.85;106041;1278;74679;-92
2023/05/03 09:27:01;;;;;;;2.70;1.10;;;;;;;24.69;20.38;101107.70;106363;1279;72738;-91
2023/05/03 09:29:35;;;;;;;3.50;1.40;;;;;;;24.67;19.98;101099.69;106110;1279;71903;-92
2023/05/03 09:32:04;;;;;;;2.80;1.20;;;;;;;24.62;20.17;101103.64;106553;1280;61224;-93
2023/05/03 09:34:35;;;;;;;3.10;1.30;;;;;;;24.60;20.21;101100.48;106263;1280;61148;-93
2023/05/03 09:37:03;;;;;;;4.30;1.30;;;;;;;24.64;20.25;101101.22;106036;1279;75805;-90
2023/05/03 09:39:31;;;;;;;6.70;1.40;;;;;;;24.68;20.29;101095.35;106122;1280;73585;-90
2023/05/03 09:42:09;;;;;;;5.60;1.20;;;;;;;24.63;20.02;101108.83;106020;1279;71506;-92
2023/05/03 09:44:47;;;;;;;3.80;1.50;;;;;;;24.62;20.44;101106.94;105955;1280;61255;-92
2023/05/03 09:47:15;;;;;;;2.80;1.30;;;;;;;24.68;20.31;101103.23;106106;1279;60401;-90
2023/05/03 09:49:43;;;;;;;3.00;1.30;;;;;;;24.68;20.08;101103.14;106283;1279;76169;-91
2023/05/03 09:52:12;;;;;;;3.20;1.10;;;;;;;24.70;20.20;101095.80;105982;1280;73929;-93
2023/05/03 09:54:39;;;;;;;5.00;1.50;;;;;;;24.76;20.66;101101.64;106285;1280;71851;-91
2023/05/03 09:57:09;;;;;;;3.50;1.10;;;;;;;24.87;20.55;101098.02;106566;1279;61037;-94
2023/05/03 09:59:50;;;;;;;1.90;1.10;;;;;;;24.95;20.19;101102.09;106304;1280;59879;-91
2023/05/03 10:02:20;;;;;;;4.10;1.50;;;;;;;24.91;20.19;101102.27;106359;1282;74612;-90
2023/05/03 10:04:50;;;;;;;2.90;1.50;;;;;;;24.90;20.58;101100.14;106500;1280;72007;-93
2023/05/03 10:07:18;;;;;;;2.30;1.10;;;;;;;24.95;20.07;101098.36;106242;1284;72179;-92
2023/05/03 10:09:46;;;;;;;2.90;1.20;;;;;;;25.00;20.16;101093.52;106157;1279;61748;-90
2023/05/03 10:12:21;;;;;;;4.00;1.40;;;;;;;24.98;20.25;101096.19;106272;1280;61130;-93
2023/05/03 10:14:59;;;;;;;4.30;1.20;;;;;;;24.99;20.07;101089.35;106330;1280;73558;-91
2023/05/03 10:17:30;;;;;;;4.80;1.50;;;;;;;24.99;19.97;101096.75;106188;1279;71656;-93
2023/05/03 10:20:43;;;;;;;5.70;1.40;;;;;;;24.98;20.11;101096.11;105939;1279;72480;-91
2023/05/03 10:23:13;;;;;;;3.00;1.20;;;;;;;25.12;20.25;101095.45;106242;1280;60478;-91
2023/05/03 10:26:06;;;;;;;2.80;1.40;;;;;;;25.30;20.21;101097.07;106207;1279;60246;-90
2023/05/03 10:28:33;;;;;;;2.80;1.10;;;;;;;25.55;19.48;101095.54;106517;1279;74200;-92
2023/05/03 10:31:01;;;;;;;3.60;1.50;;;;;;;25.73;19.50;101096.30;106294;1280;72170;-90
2023/05/03 10:33:35;;;;;;;2.80;1.20;;;;;;;25.84;19.39;101095.23;106504;1282;72529;-90
2023/05/03 10:36:06;;;;;;;1.50;1.10;;;;;;;25.92;19.27;101090.63;106312;1279;61282;-93
2023/05/03 10:38:33;;;;;;;3.20;1.40;;;;;;;26.00;19.59;101096.46;106335;1282;61234;-90
2023/05/03 10:41:02;;;;;;;2.40;1.40;;;;;;;26.06;19.36;101101.15;106346;1280;75922;-91
2023/05/03 10:43:34;;;;;;;4.10;1.30;;;;;;;25.95;19.07;101091.90;106210;1279;72011;-90
2023/05/03 10:46:04;;;;;;;6.20;1.30;;;;;;;25.83;18.76;101095.29;106733;1280;73772;-88
2023/05/03 10:48:32;;;;;;;3.90;1.50;;;;;;;25.72;18.67;101093.95;106422;1279;61170;-93
2023/05/03 10:51:45;;;;;;;4.10;1.40;;;;;;;25.71;19.15;101097.09;106388;1279;61288;-92
2023/05/03 10:54:18;;;;;;;5.50;1.50;;;;;;;25.81;18.94;101087.17;106237;1280;74632;-90
2023/05/03 10:56:52;;;;;;;5.30;1.60;;;;;;;25.90;19.35;101082.05;106254;1280;73629;-92
2023/05/03 10:59:19;;;;;;;2.90;1.30;;;;;;;26.01;19.03;101083.66;106415;1280;73495;-92
2023/05/03 11:01:52;;;;;;;4.60;1.60;;;;;;;26.09;19.31;101077.26;106317;1279;61324;-93
2023/05/03 11:04:24;;;;;;;3.90;1.30;;;;;;;26.18;19.31;101083.19;106413;1279;60084;-92
2023/05/03 11:06:55;;;;;;;;;;;;;;;26.28;19.19;101087.13;106415;1284;75899;-92
2023/05/03 11:09:29;;;;;;;3.90;1.30;;;;;;;26.35;18.88;101083.44;106418;1279;72543;-90
2023/05/03 11:11:57;;;;;;;3.40;1.20;;;;;;;26.46;19.05;101082.21;106722;1280;72542;-90
2023/05/03 11:14:27;;;;;;;4.30;1.30;;;;;;;26.55;18.96;101078.10;106793;1279;61176;-92
2023/05/03 11:16:56;;;;;;;4.00;1.50;;;;;;;26.60;19.00;101077.05;106378;1279;60254;-92
2023/05/03 11:19:28;;;;;;;4.80;1.60;;;;;;;26.62;19.12;101076.77;106222;1280;75480;-92
2023/05/03 11:21:58;;;;;;;3.20;1.30;;;;;;;26.64;19.25;101076.98;106769;1280;73751;-92
2023/05/03 11:24:29;;;;;;;5.60;1.60;;;;;;;26.70;19.43;101076.42;106749;1279;72740;-90
2023/05/03 11:26:58;;;;;;;5.90;1.60;;;;;;;26.70;19.38;101076.20;106457;1286;60419;-89
2023/05/03 11:29:36;;;;;;;5.60;1.60;;;;;;;26.65;19.34;101074.25;107063;1279;60336;-93
2023/05/03 11:32:07;;;;;;;4.00;1.40;;;;;;;26.63;19.65;101071.64;106778;1285;75044;-90
2023/05/03 11:34:35;;;;;;;3.90;1.40;;;;;;;26.64;19.88;101072.52;107016;1280;72019;-92